sensor_id;sensor_type;location;lat;lon;timestamp;pressure;altitude;pressure_sealevel;temperature;humidity
6833;BME280;3454;42.654;23.378;2022-07-24T00:01:25;94605.19;;;24.64;50.71
6833;BME280;3454;42.654;23.378;2022-07-24T00:03:50;94591.97;;;24.47;50.93
6833;BME280;3454;42.654;23.378;2022-07-24T00:06:16;94599.75;;;24.29;50.48
6833;BME280;3454;42.654;23.378;2022-07-24T00:08:41;94590.56;;;24.08;51.09
6833;BME280;3454;42.654;23.378;2022-07-24T00:11:07;94592.94;;;24.10;51.32
6833;BME280;3454;42.654;23.378;2022-07-24T00:13:32;94594.16;;;24.07;50.55
6833;BME280;3454;42.654;23.378;2022-07-24T00:15:59;94597.66;;;23.95;50.51
6833;BME280;3454;42.654;23.378;2022-07-24T00:18:24;94583.28;;;23.92;51.36
6833;BME280;3454;42.654;23.378;2022-07-24T00:20:50;94600.47;;;23.93;51.58
6833;BME280;3454;42.654;23.378;2022-07-24T00:23:15;94618.13;;;24.09;50.29
6833;BME280;3454;42.654;23.378;2022-07-24T00:25:41;94617.06;;;24.17;50.48
6833;BME280;3454;42.654;23.378;2022-07-24T00:28:06;94607.53;;;24.11;49.86
6833;BME280;3454;42.654;23.378;2022-07-24T00:30:32;94605.16;;;24.09;50.29
6833;BME280;3454;42.654;23.378;2022-07-24T00:32:58;94604.38;;;24.02;50.32
6833;BME280;3454;42.654;23.378;2022-07-24T00:35:23;94602.31;;;23.86;50.62
6833;BME280;3454;42.654;23.378;2022-07-24T00:37:49;94600.78;;;23.79;50.82
6833;BME280;3454;42.654;23.378;2022-07-24T00:40:15;94595.72;;;23.84;50.08
6833;BME280;3454;42.654;23.378;2022-07-24T00:42:42;94591.38;;;23.78;50.84
6833;BME280;3454;42.654;23.378;2022-07-24T00:45:09;94598.22;;;23.72;50.23
6833;BME280;3454;42.654;23.378;2022-07-24T00:47:36;94605.13;;;23.85;50.49
6833;BME280;3454;42.654;23.378;2022-07-24T00:50:01;94602.97;;;24.06;49.99
6833;BME280;3454;42.654;23.378;2022-07-24T00:52:30;94592.00;;;23.98;50.50
6833;BME280;3454;42.654;23.378;2022-07-24T00:54:55;94597.59;;;24.01;50.11
6833;BME280;3454;42.654;23.378;2022-07-24T00:57:21;94614.16;;;24.07;49.63
6833;BME280;3454;42.654;23.378;2022-07-24T00:59:47;94615.03;;;23.94;50.14
6833;BME280;3454;42.654;23.378;2022-07-24T01:02:12;94605.44;;;23.95;50.46
6833;BME280;3454;42.654;23.378;2022-07-24T01:04:38;94619.22;;;24.20;49.79
6833;BME280;3454;42.654;23.378;2022-07-24T01:07:06;94613.31;;;23.82;49.45
6833;BME280;3454;42.654;23.378;2022-07-24T01:09:33;94601.28;;;23.63;50.50
6833;BME280;3454;42.654;23.378;2022-07-24T01:11:59;94583.47;;;23.42;51.76
6833;BME280;3454;42.654;23.378;2022-07-24T01:14:25;94572.50;;;23.40;52.22
6833;BME280;3454;42.654;23.378;2022-07-24T01:16:51;94574.31;;;23.39;52.48
6833;BME280;3454;42.654;23.378;2022-07-24T01:19:17;94590.81;;;23.51;51.53
6833;BME280;3454;42.654;23.378;2022-07-24T01:21:51;94582.94;;;23.26;52.50
6833;BME280;3454;42.654;23.378;2022-07-24T01:24:18;94589.44;;;23.04;52.84
6833;BME280;3454;42.654;23.378;2022-07-24T01:26:44;94577.94;;;22.87;52.81
6833;BME280;3454;42.654;23.378;2022-07-24T01:29:12;94559.72;;;22.63;54.14
6833;BME280;3454;42.654;23.378;2022-07-24T01:31:37;94556.34;;;22.62;54.21
6833;BME280;3454;42.654;23.378;2022-07-24T01:34:03;94556.53;;;22.54;54.24
6833;BME280;3454;42.654;23.378;2022-07-24T01:36:30;94546.56;;;22.51;54.38
6833;BME280;3454;42.654;23.378;2022-07-24T01:38:56;94551.78;;;22.44;54.87
6833;BME280;3454;42.654;23.378;2022-07-24T01:41:22;94555.38;;;22.37;54.54
6833;BME280;3454;42.654;23.378;2022-07-24T01:43:47;94554.41;;;22.38;54.80
6833;BME280;3454;42.654;23.378;2022-07-24T01:46:13;94548.66;;;22.23;55.20
6833;BME280;3454;42.654;23.378;2022-07-24T01:48:40;94548.03;;;22.34;54.95
6833;BME280;3454;42.654;23.378;2022-07-24T01:51:07;94553.03;;;22.29;55.22
6833;BME280;3454;42.654;23.378;2022-07-24T01:53:34;94543.03;;;22.32;55.21
6833;BME280;3454;42.654;23.378;2022-07-24T01:56:00;94542.06;;;22.33;55.21
6833;BME280;3454;42.654;23.378;2022-07-24T01:58:26;94545.47;;;22.27;55.20
6833;BME280;3454;42.654;23.378;2022-07-24T02:00:51;94547.03;;;22.28;54.99
6833;BME280;3454;42.654;23.378;2022-07-24T02:03:17;94543.09;;;22.19;55.33
6833;BME280;3454;42.654;23.378;2022-07-24T02:05:43;94546.50;;;22.13;55.34
6833;BME280;3454;42.654;23.378;2022-07-24T02:08:08;94553.84;;;22.16;55.42
6833;BME280;3454;42.654;23.378;2022-07-24T02:10:34;94549.84;;;22.20;55.25
6833;BME280;3454;42.654;23.378;2022-07-24T02:13:00;94554.44;;;22.25;54.87
6833;BME280;3454;42.654;23.378;2022-07-24T02:15:25;94557.22;;;22.17;54.87
6833;BME280;3454;42.654;23.378;2022-07-24T02:17:53;94549.47;;;22.10;55.17
6833;BME280;3454;42.654;23.378;2022-07-24T02:20:20;94552.88;;;22.11;54.90
6833;BME280;3454;42.654;23.378;2022-07-24T02:22:45;94553.44;;;22.19;55.41
6833;BME280;3454;42.654;23.378;2022-07-24T02:25:12;94549.25;;;22.25;54.98
6833;BME280;3454;42.654;23.378;2022-07-24T02:27:38;94557.44;;;22.22;54.80
6833;BME280;3454;42.654;23.378;2022-07-24T02:30:08;94554.81;;;22.28;54.72
6833;BME280;3454;42.654;23.378;2022-07-24T02:32:34;94555.81;;;22.27;54.60
6833;BME280;3454;42.654;23.378;2022-07-24T02:35:00;94551.41;;;22.34;54.85
6833;BME280;3454;42.654;23.378;2022-07-24T02:37:26;94564.94;;;22.43;53.91
6833;BME280;3454;42.654;23.378;2022-07-24T02:39:51;94567.34;;;22.38;53.84
6833;BME280;3454;42.654;23.378;2022-07-24T02:42:17;94557.81;;;22.32;54.37
6833;BME280;3454;42.654;23.378;2022-07-24T02:44:42;94560.59;;;22.30;55.33
6833;BME280;3454;42.654;23.378;2022-07-24T02:47:08;94570.94;;;22.30;54.82
6833;BME280;3454;42.654;23.378;2022-07-24T02:49:34;94557.38;;;22.41;55.25
6833;BME280;3454;42.654;23.378;2022-07-24T02:52:00;94576.72;;;22.39;53.79
6833;BME280;3454;42.654;23.378;2022-07-24T02:54:26;94561.97;;;22.33;55.04
6833;BME280;3454;42.654;23.378;2022-07-24T02:56:51;94566.75;;;22.36;54.71
6833;BME280;3454;42.654;23.378;2022-07-24T02:59:17;94561.75;;;22.47;55.15
6833;BME280;3454;42.654;23.378;2022-07-24T03:01:42;94556.94;;;22.51;55.25
6833;BME280;3454;42.654;23.378;2022-07-24T03:04:08;94582.22;;;22.69;54.11
6833;BME280;3454;42.654;23.378;2022-07-24T03:06:33;94584.44;;;22.59;53.57
6833;BME280;3454;42.654;23.378;2022-07-24T03:09:00;94576.66;;;22.59;54.10
6833;BME280;3454;42.654;23.378;2022-07-24T03:11:26;94576.59;;;22.78;54.42
6833;BME280;3454;42.654;23.378;2022-07-24T03:13:51;94561.53;;;22.62;55.36
6833;BME280;3454;42.654;23.378;2022-07-24T03:16:17;94540.56;;;22.64;56.34
6833;BME280;3454;42.654;23.378;2022-07-24T03:18:43;94553.66;;;22.82;55.49
6833;BME280;3454;42.654;23.378;2022-07-24T03:21:14;94530.88;;;22.39;56.94
6833;BME280;3454;42.654;23.378;2022-07-24T03:23:40;94538.28;;;22.36;57.23
6833;BME280;3454;42.654;23.378;2022-07-24T03:26:05;94543.47;;;22.29;57.48
6833;BME280;3454;42.654;23.378;2022-07-24T03:28:31;94546.19;;;22.47;57.10
6833;BME280;3454;42.654;23.378;2022-07-24T03:30:57;94561.47;;;22.75;56.60
6833;BME280;3454;42.654;23.378;2022-07-24T03:33:22;94569.56;;;22.92;55.50
6833;BME280;3454;42.654;23.378;2022-07-24T03:35:48;94579.56;;;22.88;54.89
6833;BME280;3454;42.654;23.378;2022-07-24T03:38:20;94577.44;;;22.66;55.50
6833;BME280;3454;42.654;23.378;2022-07-24T03:40:46;94567.50;;;22.56;56.27
6833;BME280;3454;42.654;23.378;2022-07-24T03:43:12;94558.13;;;22.48;56.45
6833;BME280;3454;42.654;23.378;2022-07-24T03:45:38;94551.84;;;22.25;57.24
6833;BME280;3454;42.654;23.378;2022-07-24T03:48:04;94561.22;;;22.26;58.08
6833;BME280;3454;42.654;23.378;2022-07-24T03:50:29;94557.81;;;22.32;57.75
6833;BME280;3454;42.654;23.378;2022-07-24T03:52:55;94558.56;;;22.39;57.65
6833;BME280;3454;42.654;23.378;2022-07-24T03:55:21;94551.22;;;22.29;58.66
6833;BME280;3454;42.654;23.378;2022-07-24T03:57:46;94560.13;;;22.46;58.31
6833;BME280;3454;42.654;23.378;2022-07-24T04:00:12;94553.03;;;22.29;58.71
6833;BME280;3454;42.654;23.378;2022-07-24T04:02:40;94550.75;;;22.59;58.18
6833;BME280;3454;42.654;23.378;2022-07-24T04:05:07;94555.75;;;22.60;57.91
6833;BME280;3454;42.654;23.378;2022-07-24T04:07:35;94550.56;;;22.53;58.22
6833;BME280;3454;42.654;23.378;2022-07-24T04:10:00;94550.34;;;22.48;58.53
6833;BME280;3454;42.654;23.378;2022-07-24T04:12:26;94532.31;;;22.29;59.54
6833;BME280;3454;42.654;23.378;2022-07-24T04:14:52;94543.75;;;22.52;59.00
6833;BME280;3454;42.654;23.378;2022-07-24T04:17:17;94545.81;;;22.37;59.49
6833;BME280;3454;42.654;23.378;2022-07-24T04:19:43;94543.03;;;22.32;60.03
6833;BME280;3454;42.654;23.378;2022-07-24T04:22:09;94543.44;;;22.36;60.36
6833;BME280;3454;42.654;23.378;2022-07-24T04:24:34;94561.06;;;22.78;59.67
6833;BME280;3454;42.654;23.378;2022-07-24T04:27:00;94562.81;;;22.84;59.63
6833;BME280;3454;42.654;23.378;2022-07-24T04:29:26;94566.03;;;22.73;59.33
6833;BME280;3454;42.654;23.378;2022-07-24T04:31:51;94575.03;;;22.71;59.04
6833;BME280;3454;42.654;23.378;2022-07-24T04:34:17;94566.91;;;22.47;59.34
6833;BME280;3454;42.654;23.378;2022-07-24T04:36:43;94570.13;;;22.43;59.30
6833;BME280;3454;42.654;23.378;2022-07-24T04:39:08;94578.47;;;22.45;58.18
6833;BME280;3454;42.654;23.378;2022-07-24T04:41:34;94571.75;;;22.37;59.34
6833;BME280;3454;42.654;23.378;2022-07-24T04:43:59;94568.94;;;22.39;59.17
6833;BME280;3454;42.654;23.378;2022-07-24T04:46:25;94580.88;;;22.46;58.32
6833;BME280;3454;42.654;23.378;2022-07-24T04:48:51;94584.47;;;22.52;58.12
6833;BME280;3454;42.654;23.378;2022-07-24T04:51:16;94580.47;;;22.56;58.71
6833;BME280;3454;42.654;23.378;2022-07-24T04:53:42;94566.94;;;22.34;60.05
6833;BME280;3454;42.654;23.378;2022-07-24T04:56:07;94574.34;;;22.24;60.51
6833;BME280;3454;42.654;23.378;2022-07-24T04:58:33;94563.44;;;22.16;60.81
6833;BME280;3454;42.654;23.378;2022-07-24T05:00:58;94573.91;;;22.40;60.47
6833;BME280;3454;42.654;23.378;2022-07-24T05:03:24;94571.91;;;22.49;60.28
6833;BME280;3454;42.654;23.378;2022-07-24T05:05:56;94586.06;;;22.60;60.00
6833;BME280;3454;42.654;23.378;2022-07-24T05:08:22;94586.63;;;22.68;59.58
6833;BME280;3454;42.654;23.378;2022-07-24T05:10:48;94583.03;;;22.56;60.72
6833;BME280;3454;42.654;23.378;2022-07-24T05:13:13;94591.22;;;22.53;60.33
6833;BME280;3454;42.654;23.378;2022-07-24T05:15:39;94602.00;;;22.50;60.05
6833;BME280;3454;42.654;23.378;2022-07-24T05:18:04;94597.59;;;22.57;59.58
6833;BME280;3454;42.654;23.378;2022-07-24T05:20:30;94610.19;;;22.60;58.99
6833;BME280;3454;42.654;23.378;2022-07-24T05:22:55;94594.81;;;22.52;59.37
6833;BME280;3454;42.654;23.378;2022-07-24T05:25:21;94593.16;;;22.77;60.01
6833;BME280;3454;42.654;23.378;2022-07-24T05:27:46;94597.41;;;23.03;59.86
6833;BME280;3454;42.654;23.378;2022-07-24T05:30:12;94602.38;;;23.11;59.52
6833;BME280;3454;42.654;23.378;2022-07-24T05:32:38;94608.88;;;23.26;58.90
6833;BME280;3454;42.654;23.378;2022-07-24T05:35:04;94604.88;;;23.37;59.28
6833;BME280;3454;42.654;23.378;2022-07-24T05:37:30;94593.53;;;23.56;63.23
6833;BME280;3454;42.654;23.378;2022-07-24T05:39:56;94631.94;;;23.79;68.15
6833;BME280;3454;42.654;23.378;2022-07-24T05:42:22;94658.63;;;23.86;64.58
6833;BME280;3454;42.654;23.378;2022-07-24T05:44:47;94715.94;;;23.91;60.04
6833;BME280;3454;42.654;23.378;2022-07-24T05:47:12;94698.09;;;24.01;61.16
6833;BME280;3454;42.654;23.378;2022-07-24T05:49:38;94741.78;;;24.17;58.73
6833;BME280;3454;42.654;23.378;2022-07-24T05:52:04;94659.47;;;24.11;62.57
6833;BME280;3454;42.654;23.378;2022-07-24T05:54:29;94745.81;;;24.13;56.36
6833;BME280;3454;42.654;23.378;2022-07-24T05:56:55;94609.53;;;24.09;63.46
6833;BME280;3454;42.654;23.378;2022-07-24T05:59:20;94653.88;;;24.32;62.18
6833;BME280;3454;42.654;23.378;2022-07-24T06:01:46;94677.19;;;24.45;60.35
6833;BME280;3454;42.654;23.378;2022-07-24T06:04:11;94727.19;;;24.41;56.32
6833;BME280;3454;42.654;23.378;2022-07-24T06:06:37;94750.84;;;24.33;55.61
6833;BME280;3454;42.654;23.378;2022-07-24T06:09:03;94654.91;;;24.31;59.89
6833;BME280;3454;42.654;23.378;2022-07-24T06:11:29;94711.19;;;24.44;57.11
6833;BME280;3454;42.654;23.378;2022-07-24T06:13:55;94726.06;;;24.55;55.85
6833;BME280;3454;42.654;23.378;2022-07-24T06:16:20;94681.25;;;24.59;58.54
6833;BME280;3454;42.654;23.378;2022-07-24T06:18:46;94666.44;;;24.84;60.14
6833;BME280;3454;42.654;23.378;2022-07-24T06:21:11;94653.97;;;25.23;60.96
6833;BME280;3454;42.654;23.378;2022-07-24T06:23:37;94690.09;;;25.49;58.60
6833;BME280;3454;42.654;23.378;2022-07-24T06:26:02;94697.19;;;25.71;57.78
6833;BME280;3454;42.654;23.378;2022-07-24T06:28:28;94719.56;;;25.91;55.81
6833;BME280;3454;42.654;23.378;2022-07-24T06:30:54;94787.69;;;25.76;51.96
6833;BME280;3454;42.654;23.378;2022-07-24T06:33:19;94761.09;;;25.56;52.68
6833;BME280;3454;42.654;23.378;2022-07-24T06:35:45;94731.28;;;25.70;54.10
6833;BME280;3454;42.654;23.378;2022-07-24T06:38:10;94774.75;;;25.88;51.67
6833;BME280;3454;42.654;23.378;2022-07-24T06:40:37;94776.97;;;25.54;50.77
6833;BME280;3454;42.654;23.378;2022-07-24T06:43:03;94741.38;;;25.78;52.84
6833;BME280;3454;42.654;23.378;2022-07-24T06:45:29;94723.31;;;25.95;53.34
6833;BME280;3454;42.654;23.378;2022-07-24T06:47:59;94721.16;;;26.10;53.25
6833;BME280;3454;42.654;23.378;2022-07-24T06:50:26;94746.75;;;26.24;52.49
6833;BME280;3454;42.654;23.378;2022-07-24T06:52:52;94737.38;;;26.35;52.55
6833;BME280;3454;42.654;23.378;2022-07-24T06:55:18;94740.91;;;26.40;52.21
6833;BME280;3454;42.654;23.378;2022-07-24T06:57:44;94725.16;;;26.58;52.79
6833;BME280;3454;42.654;23.378;2022-07-24T07:00:11;94738.03;;;26.72;52.10
6833;BME280;3454;42.654;23.378;2022-07-24T07:02:37;94785.84;;;26.66;49.66
6833;BME280;3454;42.654;23.378;2022-07-24T07:05:07;94784.56;;;26.56;49.59
6833;BME280;3454;42.654;23.378;2022-07-24T07:07:34;94774.03;;;26.51;49.55
6833;BME280;3454;42.654;23.378;2022-07-24T07:10:01;94769.25;;;26.48;49.63
6833;BME280;3454;42.654;23.378;2022-07-24T07:12:26;94744.41;;;26.34;50.48
6833;BME280;3454;42.654;23.378;2022-07-24T07:14:52;94744.97;;;26.36;50.36
6833;BME280;3454;42.654;23.378;2022-07-24T07:17:18;94753.19;;;26.51;50.25
6833;BME280;3454;42.654;23.378;2022-07-24T07:19:44;94748.88;;;26.69;50.32
6833;BME280;3454;42.654;23.378;2022-07-24T07:22:10;94745.16;;;26.88;50.29
6833;BME280;3454;42.654;23.378;2022-07-24T07:24:36;94721.22;;;26.56;51.12
6833;BME280;3454;42.654;23.378;2022-07-24T07:27:02;94740.00;;;26.46;50.86
6833;BME280;3454;42.654;23.378;2022-07-24T07:29:28;94731.03;;;26.42;50.83
6833;BME280;3454;42.654;23.378;2022-07-24T07:31:54;94739.91;;;26.53;50.00
6833;BME280;3454;42.654;23.378;2022-07-24T07:34:20;94776.69;;;26.75;48.39
6833;BME280;3454;42.654;23.378;2022-07-24T07:36:46;94763.06;;;26.73;48.78
6833;BME280;3454;42.654;23.378;2022-07-24T07:39:11;94763.44;;;26.88;48.65
6833;BME280;3454;42.654;23.378;2022-07-24T07:41:36;94738.34;;;26.87;49.73
6833;BME280;3454;42.654;23.378;2022-07-24T07:44:02;94722.13;;;26.85;50.49
6833;BME280;3454;42.654;23.378;2022-07-24T07:46:29;94718.84;;;26.89;50.80
6833;BME280;3454;42.654;23.378;2022-07-24T07:48:55;94753.22;;;26.86;49.35
6833;BME280;3454;42.654;23.378;2022-07-24T07:51:21;94789.31;;;26.78;47.64
6833;BME280;3454;42.654;23.378;2022-07-24T07:53:46;94740.06;;;26.81;49.13
6833;BME280;3454;42.654;23.378;2022-07-24T07:56:12;94745.38;;;27.09;49.13
6833;BME280;3454;42.654;23.378;2022-07-24T07:58:38;94793.63;;;27.07;46.53
6833;BME280;3454;42.654;23.378;2022-07-24T08:01:04;94782.13;;;27.19;47.08
6833;BME280;3454;42.654;23.378;2022-07-24T08:03:29;94815.97;;;27.26;45.22
6833;BME280;3454;42.654;23.378;2022-07-24T08:05:55;94795.66;;;27.28;46.15
6833;BME280;3454;42.654;23.378;2022-07-24T08:08:22;94808.69;;;27.28;45.54
6833;BME280;3454;42.654;23.378;2022-07-24T08:10:48;94808.81;;;27.33;45.44
6833;BME280;3454;42.654;23.378;2022-07-24T08:13:14;94815.41;;;27.47;45.08
6833;BME280;3454;42.654;23.378;2022-07-24T08:15:41;94814.78;;;27.68;45.01
6833;BME280;3454;42.654;23.378;2022-07-24T08:18:07;94824.00;;;27.71;44.37
6833;BME280;3454;42.654;23.378;2022-07-24T08:20:33;94839.00;;;27.75;43.65
6833;BME280;3454;42.654;23.378;2022-07-24T08:22:59;94830.06;;;27.88;43.84
6833;BME280;3454;42.654;23.378;2022-07-24T08:25:26;94852.03;;;27.98;43.25
6833;BME280;3454;42.654;23.378;2022-07-24T08:27:52;94809.50;;;28.03;44.78
6833;BME280;3454;42.654;23.378;2022-07-24T08:30:18;94807.00;;;28.24;44.23
6833;BME280;3454;42.654;23.378;2022-07-24T08:32:44;94861.25;;;28.57;42.10
6833;BME280;3454;42.654;23.378;2022-07-24T08:35:10;94817.72;;;28.68;44.05
6833;BME280;3454;42.654;23.378;2022-07-24T08:37:37;94823.94;;;28.78;43.06
6833;BME280;3454;42.654;23.378;2022-07-24T08:40:04;94844.16;;;28.55;42.16
6833;BME280;3454;42.654;23.378;2022-07-24T08:42:30;94836.75;;;28.63;42.74
6833;BME280;3454;42.654;23.378;2022-07-24T08:44:56;94867.69;;;28.83;41.05
6833;BME280;3454;42.654;23.378;2022-07-24T08:47:24;94856.53;;;28.87;41.50
6833;BME280;3454;42.654;23.378;2022-07-24T08:49:53;94824.88;;;28.89;42.51
6833;BME280;3454;42.654;23.378;2022-07-24T08:52:21;94804.31;;;28.97;43.06
6833;BME280;3454;42.654;23.378;2022-07-24T08:54:48;94841.06;;;29.02;41.90
6833;BME280;3454;42.654;23.378;2022-07-24T08:57:14;94841.38;;;29.06;41.47
6833;BME280;3454;42.654;23.378;2022-07-24T08:59:39;94856.50;;;29.37;40.59
6833;BME280;3454;42.654;23.378;2022-07-24T09:02:05;94850.88;;;29.45;40.14
6833;BME280;3454;42.654;23.378;2022-07-24T09:07:05;94834.28;;;29.40;41.08
6833;BME280;3454;42.654;23.378;2022-07-24T09:09:31;94838.94;;;29.54;40.35
6833;BME280;3454;42.654;23.378;2022-07-24T09:12:11;94831.50;;;29.46;40.48
6833;BME280;3454;42.654;23.378;2022-07-24T09:14:42;94844.78;;;29.61;39.85
6833;BME280;3454;42.654;23.378;2022-07-24T09:17:10;94801.19;;;29.72;41.56
6833;BME280;3454;42.654;23.378;2022-07-24T09:19:59;94843.94;;;29.94;39.93
6833;BME280;3454;42.654;23.378;2022-07-24T09:22:35;94838.25;;;29.80;39.80
6833;BME280;3454;42.654;23.378;2022-07-24T09:27:46;94833.31;;;30.06;39.94
6833;BME280;3454;42.654;23.378;2022-07-24T09:30:35;94850.59;;;30.28;39.25
6833;BME280;3454;42.654;23.378;2022-07-24T09:33:06;94855.78;;;30.45;38.53
6833;BME280;3454;42.654;23.378;2022-07-24T09:38:00;94814.13;;;30.80;40.59
6833;BME280;3454;42.654;23.378;2022-07-24T09:40:32;94837.16;;;31.00;39.36
6833;BME280;3454;42.654;23.378;2022-07-24T09:46:04;94852.50;;;31.13;38.36
6833;BME280;3454;42.654;23.378;2022-07-24T09:48:39;94845.13;;;31.47;38.40
6833;BME280;3454;42.654;23.378;2022-07-24T09:51:15;94846.19;;;31.56;37.99
6833;BME280;3454;42.654;23.378;2022-07-24T09:53:43;94850.75;;;31.65;37.42
6833;BME280;3454;42.654;23.378;2022-07-24T09:56:15;94844.97;;;31.68;37.41
6833;BME280;3454;42.654;23.378;2022-07-24T10:01:12;94862.59;;;31.73;34.50
6833;BME280;3454;42.654;23.378;2022-07-24T10:03:39;94853.78;;;31.94;34.59
6833;BME280;3454;42.654;23.378;2022-07-24T10:06:12;94871.81;;;32.22;33.62
6833;BME280;3454;42.654;23.378;2022-07-24T10:08:41;94801.81;;;32.41;35.07
6833;BME280;3454;42.654;23.378;2022-07-24T10:11:07;94844.00;;;32.46;33.58
6833;BME280;3454;42.654;23.378;2022-07-24T10:13:34;94842.38;;;32.45;32.67
6833;BME280;3454;42.654;23.378;2022-07-24T10:18:50;94861.69;;;32.96;31.10
6833;BME280;3454;42.654;23.378;2022-07-24T10:21:24;94828.72;;;32.93;32.13
6833;BME280;3454;42.654;23.378;2022-07-24T10:26:43;94834.56;;;33.05;31.13
6833;BME280;3454;42.654;23.378;2022-07-24T10:29:25;94844.28;;;33.15;30.36
6833;BME280;3454;42.654;23.378;2022-07-24T10:31:55;94829.50;;;33.29;30.87
6833;BME280;3454;42.654;23.378;2022-07-24T10:42:22;94815.25;;;33.50;30.05
6833;BME280;3454;42.654;23.378;2022-07-24T10:45:16;94783.69;;;33.94;31.55
6833;BME280;3454;42.654;23.378;2022-07-24T10:47:43;94771.81;;;34.45;31.20
6833;BME280;3454;42.654;23.378;2022-07-24T10:50:10;94802.31;;;34.66;30.29
6833;BME280;3454;42.654;23.378;2022-07-24T10:52:35;94783.88;;;34.56;30.71
6833;BME280;3454;42.654;23.378;2022-07-24T10:55:31;94797.59;;;34.63;29.49
6833;BME280;3454;42.654;23.378;2022-07-24T10:58:01;94798.25;;;34.40;29.12
6833;BME280;3454;42.654;23.378;2022-07-24T11:00:31;94817.81;;;34.39;27.76
6833;BME280;3454;42.654;23.378;2022-07-24T11:03:03;94801.03;;;34.64;27.91
6833;BME280;3454;42.654;23.378;2022-07-24T11:05:31;94805.44;;;34.74;27.90
6833;BME280;3454;42.654;23.378;2022-07-24T11:10:51;94796.38;;;35.47;27.59
6833;BME280;3454;42.654;23.378;2022-07-24T11:24:17;94761.75;;;35.15;27.94
6833;BME280;3454;42.654;23.378;2022-07-24T11:26:53;94762.78;;;35.42;27.31
6833;BME280;3454;42.654;23.378;2022-07-24T11:29:21;94752.41;;;34.99;27.76
6833;BME280;3454;42.654;23.378;2022-07-24T11:34:22;94722.09;;;34.52;28.64
6833;BME280;3454;42.654;23.378;2022-07-24T11:36:49;94692.78;;;34.54;29.93
6833;BME280;3454;42.654;23.378;2022-07-24T11:39:17;94718.31;;;34.30;28.37
6833;BME280;3454;42.654;23.378;2022-07-24T11:41:51;94715.94;;;34.28;29.16
6833;BME280;3454;42.654;23.378;2022-07-24T11:44:25;94704.41;;;34.53;29.15
6833;BME280;3454;42.654;23.378;2022-07-24T11:46:51;94693.91;;;34.48;29.68
6833;BME280;3454;42.654;23.378;2022-07-24T11:49:17;94675.34;;;34.53;30.86
6833;BME280;3454;42.654;23.378;2022-07-24T11:51:48;94723.13;;;34.56;28.35
6833;BME280;3454;42.654;23.378;2022-07-24T11:54:28;94701.81;;;34.48;28.83
6833;BME280;3454;42.654;23.378;2022-07-24T11:56:55;94667.19;;;34.16;30.69
6833;BME280;3454;42.654;23.378;2022-07-24T11:59:26;94675.09;;;33.72;30.10
6833;BME280;3454;42.654;23.378;2022-07-24T12:02:08;94671.78;;;33.41;30.49
6833;BME280;3454;42.654;23.378;2022-07-24T12:04:36;94660.53;;;33.26;30.76
6833;BME280;3454;42.654;23.378;2022-07-24T12:07:06;94668.00;;;33.09;30.35
6833;BME280;3454;42.654;23.378;2022-07-24T12:09:32;94652.97;;;32.89;31.33
6833;BME280;3454;42.654;23.378;2022-07-24T12:12:27;94668.81;;;32.79;30.69
6833;BME280;3454;42.654;23.378;2022-07-24T12:15:07;94644.34;;;32.73;31.08
6833;BME280;3454;42.654;23.378;2022-07-24T12:20:23;94631.44;;;32.67;31.67
6833;BME280;3454;42.654;23.378;2022-07-24T12:22:49;94631.19;;;32.63;31.60
6833;BME280;3454;42.654;23.378;2022-07-24T12:25:16;94630.16;;;32.59;31.75
6833;BME280;3454;42.654;23.378;2022-07-24T12:27:43;94632.81;;;32.54;31.83
6833;BME280;3454;42.654;23.378;2022-07-24T12:30:25;94630.38;;;32.78;31.66
6833;BME280;3454;42.654;23.378;2022-07-24T12:35:53;94648.53;;;33.58;30.56
6833;BME280;3454;42.654;23.378;2022-07-24T12:38:33;94635.97;;;33.84;31.03
6833;BME280;3454;42.654;23.378;2022-07-24T12:41:05;94651.69;;;34.04;30.06
6833;BME280;3454;42.654;23.378;2022-07-24T12:43:32;94660.63;;;34.08;30.18
6833;BME280;3454;42.654;23.378;2022-07-24T12:46:06;94666.50;;;34.67;29.73
6833;BME280;3454;42.654;23.378;2022-07-24T12:48:32;94669.47;;;35.37;29.47
6833;BME280;3454;42.654;23.378;2022-07-24T12:51:09;94689.00;;;35.41;27.88
6833;BME280;3454;42.654;23.378;2022-07-24T12:53:39;94680.94;;;35.04;27.74
6833;BME280;3454;42.654;23.378;2022-07-24T12:58:53;94679.25;;;35.79;27.31
6833;BME280;3454;42.654;23.378;2022-07-24T13:01:20;94673.75;;;35.94;27.47
6833;BME280;3454;42.654;23.378;2022-07-24T13:03:59;94660.06;;;35.50;28.16
6833;BME280;3454;42.654;23.378;2022-07-24T13:06:35;94667.66;;;35.56;27.01
6833;BME280;3454;42.654;23.378;2022-07-24T13:09:03;94654.88;;;35.39;27.29
6833;BME280;3454;42.654;23.378;2022-07-24T13:11:29;94656.50;;;36.15;27.56
6833;BME280;3454;42.654;23.378;2022-07-24T13:13:55;94675.94;;;36.43;26.38
6833;BME280;3454;42.654;23.378;2022-07-24T13:16:21;94681.47;;;36.46;26.27
6833;BME280;3454;42.654;23.378;2022-07-24T13:18:49;94671.47;;;36.57;26.52
6833;BME280;3454;42.654;23.378;2022-07-24T13:21:34;94673.66;;;36.68;25.73
6833;BME280;3454;42.654;23.378;2022-07-24T13:24:01;94642.09;;;36.99;26.87
6833;BME280;3454;42.654;23.378;2022-07-24T13:26:27;94616.75;;;37.20;27.97
6833;BME280;3454;42.654;23.378;2022-07-24T13:28:53;94637.75;;;37.44;26.65
6833;BME280;3454;42.654;23.378;2022-07-24T13:31:19;94628.22;;;37.29;27.06
6833;BME280;3454;42.654;23.378;2022-07-24T13:33:46;94642.75;;;37.59;26.54
6833;BME280;3454;42.654;23.378;2022-07-24T13:36:14;94602.56;;;37.52;28.08
6833;BME280;3454;42.654;23.378;2022-07-24T13:38:39;94605.34;;;37.20;27.90
6833;BME280;3454;42.654;23.378;2022-07-24T13:41:05;94609.78;;;36.97;27.64
6833;BME280;3454;42.654;23.378;2022-07-24T13:43:31;94574.19;;;36.57;28.98
6833;BME280;3454;42.654;23.378;2022-07-24T13:45:58;94609.34;;;36.31;28.18
6833;BME280;3454;42.654;23.378;2022-07-24T13:48:24;94591.63;;;35.62;28.58
6833;BME280;3454;42.654;23.378;2022-07-24T13:50:49;94584.81;;;35.18;29.15
6833;BME280;3454;42.654;23.378;2022-07-24T13:53:16;94573.66;;;35.21;30.10
6833;BME280;3454;42.654;23.378;2022-07-24T13:55:41;94578.50;;;35.14;29.13
6833;BME280;3454;42.654;23.378;2022-07-24T13:58:07;94572.72;;;34.89;30.09
6833;BME280;3454;42.654;23.378;2022-07-24T14:00:33;94552.44;;;34.84;30.20
6833;BME280;3454;42.654;23.378;2022-07-24T14:02:58;94542.59;;;34.66;30.92